Time;durP1;ratioP1;P1;durP2;ratioP2;P2;SDS_P1;SDS_P2;PMS_P1;PMS_P2;Temp;Humidity;BMP_temperature;BMP_pressure;BME280_temperature;BME280_humidity;BME280_pressure;Samples;Min_cycle;Max_cycle;Signal;HPM_P1;HPM_P2
2022/07/14 00:01:00;;;;;;;;;;;21.80;53.80;;;;;;5141146;27;19927;-48
2022/07/14 00:03:25;;;;;;;;;;;20.90;53.30;;;;;;5146759;27;19923;-48
2022/07/14 00:05:51;;;;;;;;;;;20.60;52.40;;;;;;5120389;27;20302;-45
2022/07/14 00:08:17;;;;;;;;;;;20.30;51.80;;;;;;5140377;27;19976;-48
2022/07/14 00:10:43;;;;;;;;;;;20.20;51.20;;;;;;5146370;27;19927;-45
2022/07/14 00:13:09;;;;;;;;;;;20.00;51.00;;;;;;5140595;27;19930;-48
2022/07/14 00:15:34;;;;;;;;;;;20.40;54.80;;;;;;5144759;27;19975;-53
2022/07/14 00:18:00;;;;;;;;;;;21.20;55.70;;;;;;5140561;27;19923;-45
2022/07/14 00:20:26;;;;;;;;;;;21.70;53.80;;;;;;5140757;27;19923;-45
2022/07/14 00:22:52;;;;;;;;;;;20.70;53.40;;;;;;5146254;27;19973;-46
2022/07/14 00:25:18;;;;;;;;;;;20.50;52.40;;;;;;5140432;27;20019;-53
2022/07/14 00:27:45;;;;;;;;;;;20.20;51.60;;;;;;5140801;27;19927;-46
2022/07/14 00:30:11;;;;;;;;;;;19.90;51.50;;;;;;5146378;27;19927;-47
2022/07/14 00:32:37;;;;;;;;;;;19.90;51.00;;;;;;5139404;27;19927;-49
2022/07/14 00:35:03;;;;;;;;;;;19.90;53.70;;;;;;5145303;27;19923;-47
2022/07/14 00:37:29;;;;;;;;;;;20.80;55.70;;;;;;5140422;27;19929;-47
2022/07/14 00:39:54;;;;;;;;;;;21.70;54.50;;;;;;5140642;27;19974;-49
2022/07/14 00:42:37;;;;;;;;;;;21.30;53.40;;;;;;5146181;27;20267;-47
2022/07/14 00:45:04;;;;;;;;;;;20.60;52.70;;;;;;5140032;27;20014;-45
2022/07/14 00:47:30;;;;;;;;;;;20.40;52.00;;;;;;5140514;27;19953;-49
2022/07/14 00:49:55;;;;;;;;;;;20.00;51.50;;;;;;5146900;27;19927;-47
2022/07/14 00:52:22;;;;;;;;;;;20.10;50.90;;;;;;5142573;27;19931;-49
2022/07/14 00:54:47;;;;;;;;;;;20.20;55.30;;;;;;5124325;27;19930;-46
2022/07/14 00:57:13;;;;;;;;;;;21.10;55.50;;;;;;5149582;27;19923;-47
2022/07/14 00:59:39;;;;;;;;;;;21.80;53.60;;;;;;5144160;27;19923;-45
2022/07/14 01:02:05;;;;;;;;;;;20.90;53.10;;;;;;5149316;27;19923;-48
2022/07/14 01:04:30;;;;;;;;;;;20.50;52.50;;;;;;5144252;27;19937;-47
2022/07/14 01:06:56;;;;;;;;;;;20.30;52.10;;;;;;5143904;27;20433;-47
2022/07/14 01:09:22;;;;;;;;;;;20.30;50.90;;;;;;5148009;27;20365;-48
2022/07/14 01:11:48;;;;;;;;;;;20.00;53.60;;;;;;5143109;27;19958;-46
2022/07/14 01:14:13;;;;;;;;;;;20.80;56.10;;;;;;5143716;27;19962;-47
2022/07/14 01:16:39;;;;;;;;;;;21.80;54.40;;;;;;5149139;27;19927;-46
2022/07/14 01:19:05;;;;;;;;;;;21.20;53.30;;;;;;5143868;27;19930;-46
2022/07/14 01:21:31;;;;;;;;;;;20.70;52.80;;;;;;5148554;27;19927;-46
2022/07/14 01:23:57;;;;;;;;;;;20.20;52.90;;;;;;5124817;27;20013;-46
2022/07/14 01:26:24;;;;;;;;;;;20.30;51.40;;;;;;5143424;27;19933;-50
2022/07/14 01:28:50;;;;;;;;;;;19.90;51.40;;;;;;5147081;27;19927;-50
2022/07/14 01:31:15;;;;;;;;;;;20.10;54.50;;;;;;5143276;27;19992;-47
2022/07/14 01:33:41;;;;;;;;;;;21.00;56.20;;;;;;5143502;27;20142;-47
2022/07/14 01:36:07;;;;;;;;;;;21.80;54.50;;;;;;5148813;27;20385;-47
2022/07/14 01:38:33;;;;;;;;;;;21.00;53.60;;;;;;5143409;27;19946;-50
2022/07/14 01:40:58;;;;;;;;;;;20.40;53.00;;;;;;5147709;27;20013;-56
2022/07/14 01:43:24;;;;;;;;;;;20.30;51.80;;;;;;5144218;27;19931;-46
2022/07/14 01:45:50;;;;;;;;;;;19.90;51.90;;;;;;5123759;27;19926;-47
2022/07/14 01:48:16;;;;;;;;;;;19.90;51.20;;;;;;5129216;27;20284;-47
2022/07/14 01:50:41;;;;;;;;;;;20.00;54.40;;;;;;5143155;27;19931;-46
2022/07/14 01:53:07;;;;;;;;;;;20.90;56.30;;;;;;5143276;27;19923;-48
2022/07/14 01:55:34;;;;;;;;;;;21.70;55.00;;;;;;5148894;27;20381;-46
2022/07/14 01:57:59;;;;;;;;;;;21.20;53.80;;;;;;5142475;27;19927;-45
2022/07/14 02:00:25;;;;;;;;;;;20.50;53.10;;;;;;5145401;27;20446;-56
2022/07/14 02:02:51;;;;;;;;;;;20.20;52.70;;;;;;5145475;27;20312;-46
2022/07/14 02:05:17;;;;;;;;;;;20.00;51.70;;;;;;5141416;27;19934;-46
2022/07/14 02:07:43;;;;;;;;;;;19.80;51.50;;;;;;5147864;27;19937;-47
2022/07/14 02:12:53;;;;;;;;;;;21.10;55.90;;;;;;5142929;27;20303;-48
2022/07/14 02:15:19;;;;;;;;;;;21.80;54.10;;;;;;5129661;27;19923;-48
2022/07/14 02:17:45;;;;;;;;;;;20.90;53.20;;;;;;5142463;27;19927;-46
2022/07/14 02:20:11;;;;;;;;;;;20.30;52.60;;;;;;5142784;27;19935;-46
2022/07/14 02:22:37;;;;;;;;;;;20.10;52.10;;;;;;5147267;27;19934;-48
2022/07/14 02:25:03;;;;;;;;;;;19.90;51.60;;;;;;5142006;27;20323;-47
2022/07/14 02:27:29;;;;;;;;;;;20.30;55.80;;;;;;5146069;27;19923;-56
2022/07/14 02:29:54;;;;;;;;;;;21.20;56.00;;;;;;5145042;27;20382;-48
2022/07/14 02:32:20;;;;;;;;;;;21.80;54.00;;;;;;5142726;27;20003;-47
2022/07/14 02:34:46;;;;;;;;;;;20.90;53.40;;;;;;5147464;27;19931;-48
2022/07/14 02:37:12;;;;;;;;;;;20.50;52.60;;;;;;5142490;27;19931;-50
2022/07/14 02:39:38;;;;;;;;;;;20.30;51.80;;;;;;5142598;27;19925;-46
2022/07/14 02:42:03;;;;;;;;;;;20.00;51.50;;;;;;5146127;27;20324;-47
2022/07/14 02:44:29;;;;;;;;;;;19.90;52.50;;;;;;5141871;27;19923;-49
2022/07/14 02:46:55;;;;;;;;;;;20.60;56.50;;;;;;5143545;27;19922;-53
2022/07/14 02:49:21;;;;;;;;;;;21.50;55.50;;;;;;5146750;27;19930;-46
2022/07/14 02:51:46;;;;;;;;;;;21.40;53.90;;;;;;5142433;27;20378;-50
2022/07/14 02:54:12;;;;;;;;;;;20.60;53.60;;;;;;5147381;27;20302;-46
2022/07/14 02:56:38;;;;;;;;;;;20.30;52.30;;;;;;5142339;27;19967;-49
2022/07/14 02:59:04;;;;;;;;;;;20.20;51.60;;;;;;5141241;27;19923;-47
2022/07/14 03:01:30;;;;;;;;;;;19.90;51.40;;;;;;5146790;27;19930;-49
2022/07/14 03:03:56;;;;;;;;;;;20.30;55.60;;;;;;5141975;27;20037;-48
2022/07/14 03:06:22;;;;;;;;;;;21.10;56.10;;;;;;5141884;27;19923;-47
2022/07/14 03:08:48;;;;;;;;;;;21.80;53.80;;;;;;5147321;27;19930;-50
2022/07/14 03:11:13;;;;;;;;;;;20.90;53.20;;;;;;5141372;27;19927;-46
2022/07/14 03:13:40;;;;;;;;;;;20.40;52.60;;;;;;5147056;27;20305;-46
2022/07/14 03:16:09;;;;;;;;;;;20.10;52.10;;;;;;5141988;27;19933;-47
2022/07/14 03:18:36;;;;;;;;;;;19.90;51.40;;;;;;5140230;27;19988;-48
2022/07/14 03:21:04;;;;;;;;;;;20.00;53.20;;;;;;5146734;27;19978;-47
2022/07/14 03:23:30;;;;;;;;;;;20.80;56.00;;;;;;5141644;27;20380;-45
2022/07/14 03:25:55;;;;;;;;;;;21.70;54.70;;;;;;5141642;27;19934;-46
2022/07/14 03:28:21;;;;;;;;;;;21.00;53.60;;;;;;5146926;27;19991;-47
2022/07/14 03:30:52;;;;;;;;;;;20.50;52.90;;;;;;5141195;27;19981;-45
2022/07/14 03:33:18;;;;;;;;;;;20.30;52.10;;;;;;5144765;27;19942;-56
2022/07/14 03:35:44;;;;;;;;;;;20.00;51.30;;;;;;5143545;27;19927;-47
2022/07/14 03:38:09;;;;;;;;;;;19.90;52.80;;;;;;5140695;27;19923;-49
2022/07/14 03:40:35;;;;;;;;;;;20.70;56.10;;;;;;5146764;27;19930;-47
2022/07/14 03:43:01;;;;;;;;;;;21.60;54.80;;;;;;5141618;27;20374;-47
2022/07/14 03:45:27;;;;;;;;;;;21.50;53.00;;;;;;5141601;27;19939;-45
2022/07/14 03:47:53;;;;;;;;;;;20.60;53.00;;;;;;5146294;27;19931;-49
2022/07/14 03:50:19;;;;;;;;;;;20.40;52.20;;;;;;5141516;27;19924;-45
2022/07/14 03:52:45;;;;;;;;;;;20.10;51.50;;;;;;5141931;27;20021;-54
2022/07/14 03:55:11;;;;;;;;;;;19.80;51.60;;;;;;5145042;27;20290;-53
2022/07/14 03:57:37;;;;;;;;;;;20.00;55.20;;;;;;5140748;27;19975;-48
2022/07/14 04:00:03;;;;;;;;;;;20.90;56.20;;;;;;5146771;27;19923;-45
2022/07/14 04:02:29;;;;;;;;;;;21.80;54.50;;;;;;5141293;27;19923;-47
2022/07/14 04:04:55;;;;;;;;;;;20.80;53.70;;;;;;5141046;27;20397;-49
2022/07/14 04:07:20;;;;;;;;;;;20.50;52.40;;;;;;5145980;27;19983;-45
2022/07/14 04:09:46;;;;;;;;;;;20.00;51.60;;;;;;5141173;27;19930;-47
2022/07/14 04:12:13;;;;;;;;;;;20.10;51.10;;;;;;5140562;27;19971;-47
2022/07/14 04:14:39;;;;;;;;;;;20.00;53.50;;;;;;5145208;27;19923;-48
2022/07/14 04:17:05;;;;;;;;;;;20.80;55.80;;;;;;5140777;27;19927;-46
2022/07/14 04:19:30;;;;;;;;;;;21.70;54.30;;;;;;5146405;27;19987;-45
2022/07/14 04:21:56;;;;;;;;;;;21.00;53.20;;;;;;5140904;27;19942;-46
2022/07/14 04:24:22;;;;;;;;;;;20.60;52.40;;;;;;5140968;27;19931;-47
2022/07/14 04:26:48;;;;;;;;;;;20.20;52.10;;;;;;5150166;27;19945;-47
2022/07/14 04:29:16;;;;;;;;;;;20.00;51.30;;;;;;5144526;27;19923;-49
2022/07/14 04:31:42;;;;;;;;;;;20.00;50.70;;;;;;5143066;27;20349;-47
2022/07/14 04:34:08;;;;;;;;;;;19.80;52.20;;;;;;5149051;27;19934;-47
2022/07/14 04:36:34;;;;;;;;;;;20.60;55.70;;;;;;5144649;27;19929;-47
2022/07/14 04:38:59;;;;;;;;;;;21.40;54.80;;;;;;5149965;27;20022;-47
2022/07/14 04:41:25;;;;;;;;;;;21.40;53.10;;;;;;5144677;27;19972;-45
2022/07/14 04:43:52;;;;;;;;;;;20.50;53.00;;;;;;5143901;27;19923;-48
2022/07/14 04:46:18;;;;;;;;;;;20.30;52.10;;;;;;5149709;27;19929;-45
2022/07/14 04:54:12;;;;;;;;;;;20.20;55.10;;;;;;5149654;27;19927;-46
2022/07/14 04:56:38;;;;;;;;;;;21.30;55.20;;;;;;5144221;27;20195;-47
2022/07/14 04:59:04;;;;;;;;;;;21.80;53.50;;;;;;5144281;27;20072;-45
2022/07/14 05:01:30;;;;;;;;;;;20.80;53.20;;;;;;5149017;27;20331;-48
2022/07/14 05:03:55;;;;;;;;;;;20.30;52.30;;;;;;5144103;27;19923;-46
2022/07/14 05:06:21;;;;;;;;;;;20.10;51.70;;;;;;5144083;27;19933;-47
2022/07/14 05:08:47;;;;;;;;;;;19.90;51.30;;;;;;5147762;27;20437;-47
2022/07/14 05:11:13;;;;;;;;;;;19.80;50.90;;;;;;5143353;27;19934;-48
2022/07/14 05:13:39;;;;;;;;;;;20.40;55.30;;;;;;5149288;27;19929;-47
2022/07/14 05:16:05;;;;;;;;;;;21.20;55.50;;;;;;5143572;27;20311;-50
2022/07/14 05:18:31;;;;;;;;;;;21.80;53.60;;;;;;5143847;27;19930;-48
2022/07/14 05:20:56;;;;;;;;;;;20.60;53.70;;;;;;5148953;27;19946;-47
2022/07/14 05:23:23;;;;;;;;;;;20.30;52.40;;;;;;5143693;27;19979;-47
2022/07/14 05:25:49;;;;;;;;;;;20.10;51.90;;;;;;5142776;27;20285;-49
2022/07/14 05:28:14;;;;;;;;;;;19.80;51.50;;;;;;5147782;27;19923;-45
2022/07/14 05:30:40;;;;;;;;;;;20.50;56.00;;;;;;5143215;27;19934;-45
2022/07/14 05:33:07;;;;;;;;;;;21.40;55.30;;;;;;5149110;27;20063;-47
2022/07/14 05:35:33;;;;;;;;;;;21.50;53.50;;;;;;5143427;27;19931;-48
2022/07/14 05:37:59;;;;;;;;;;;20.70;53.10;;;;;;5143018;27;19923;-49
2022/07/14 05:40:25;;;;;;;;;;;20.30;52.60;;;;;;5149211;27;19975;-49
2022/07/14 05:42:50;;;;;;;;;;;20.20;51.70;;;;;;5143438;27;19923;-45
2022/07/14 05:45:16;;;;;;;;;;;20.00;51.40;;;;;;5141999;27;20187;-47
2022/07/14 05:47:42;;;;;;;;;;;20.30;55.20;;;;;;5148001;27;20312;-47
2022/07/14 05:50:08;;;;;;;;;;;21.20;55.80;;;;;;5143197;27;19927;-44
2022/07/14 05:52:34;;;;;;;;;;;21.80;53.70;;;;;;5148454;27;19955;-52
2022/07/14 05:55:00;;;;;;;;;;;20.90;53.30;;;;;;5143950;27;19923;-47
2022/07/14 05:57:26;;;;;;;;;;;20.40;52.90;;;;;;5142960;27;19923;-47
2022/07/14 05:59:52;;;;;;;;;;;20.30;51.80;;;;;;5148494;27;19946;-46
2022/07/14 06:02:18;;;;;;;;;;;20.10;51.30;;;;;;5124372;27;19924;-53
2022/07/14 06:04:43;;;;;;;;;;;20.00;50.90;;;;;;5141701;27;19923;-47
2022/07/14 06:07:09;;;;;;;;;;;19.90;52.20;;;;;;5147976;27;19927;-47
2022/07/14 06:09:36;;;;;;;;;;;20.60;55.70;;;;;;5124009;27;19931;-47
2022/07/14 06:12:06;;;;;;;;;;;21.40;55.70;;;;;;5145492;27;19933;-53
2022/07/14 06:14:32;;;;;;;;;;;21.50;53.90;;;;;;5147588;27;20396;-49
2022/07/14 06:16:57;;;;;;;;;;;20.80;53.30;;;;;;5142931;27;19923;-49
2022/07/14 06:19:23;;;;;;;;;;;20.30;52.40;;;;;;5148221;27;19930;-45
2022/07/14 06:21:49;;;;;;;;;;;20.10;52.00;;;;;;5141279;27;19931;-49
2022/07/14 06:24:15;;;;;;;;;;;20.00;51.50;;;;;;5141687;27;20047;-46
2022/07/14 06:26:40;;;;;;;;;;;20.20;54.80;;;;;;5129489;27;19937;-48
2022/07/14 06:29:06;;;;;;;;;;;21.00;56.30;;;;;;5142433;27;19923;-50
2022/07/14 06:31:34;;;;;;;;;;;21.70;54.20;;;;;;5143000;27;20425;-50
2022/07/14 06:34:00;;;;;;;;;;;20.90;53.50;;;;;;5147586;27;19933;-48
2022/07/14 06:36:26;;;;;;;;;;;20.50;52.70;;;;;;5142421;27;20279;-46
2022/07/14 06:38:52;;;;;;;;;;;20.30;52.10;;;;;;5147809;27;19923;-47
2022/07/14 06:41:20;;;;;;;;;;;20.30;51.20;;;;;;5140970;27;20290;-48
2022/07/14 06:43:46;;;;;;;;;;;20.10;50.70;;;;;;5142366;27;19923;-49
2022/07/14 06:46:15;;;;;;;;;;;20.00;51.60;;;;;;5147630;27;19962;-52
2022/07/14 06:48:41;;;;;;;;;;;20.50;56.20;;;;;;5141561;27;20369;-47
2022/07/14 06:51:07;;;;;;;;;;;21.50;55.40;;;;;;5142144;27;19927;-48
2022/07/14 06:53:33;;;;;;;;;;;21.60;53.80;;;;;;5147789;27;19923;-48
2022/07/14 06:55:59;;;;;;;;;;;20.80;53.30;;;;;;5142098;27;19923;-45
2022/07/14 06:58:24;;;;;;;;;;;20.30;52.40;;;;;;5145522;27;19937;-53
2022/07/14 07:00:50;;;;;;;;;;;20.20;51.90;;;;;;5142584;27;19927;-46
2022/07/14 07:03:16;;;;;;;;;;;20.10;51.50;;;;;;5141764;27;20018;-48
2022/07/14 07:08:28;;;;;;;;;;;20.20;53.40;;;;;;5141923;27;20025;-51
2022/07/14 07:10:57;;;;;;;;;;;21.10;55.90;;;;;;5141383;27;20030;-50
2022/07/14 07:13:23;;;;;;;;;;;21.80;54.80;;;;;;5147243;27;20021;-50
2022/07/14 07:15:49;;;;;;;;;;;21.10;53.60;;;;;;5141376;27;19933;-51
2022/07/14 07:18:14;;;;;;;;;;;20.60;52.90;;;;;;5140508;27;19923;-46
2022/07/14 07:20:40;;;;;;;;;;;20.40;52.00;;;;;;5147042;27;19923;-50
2022/07/14 07:23:06;;;;;;;;;;;20.30;51.80;;;;;;5141586;27;19966;-48
2022/07/14 07:25:32;;;;;;;;;;;19.90;51.80;;;;;;5145619;27;19927;-55
2022/07/14 07:28:00;;;;;;;;;;;19.90;51.30;;;;;;5143492;27;20498;-48
2022/07/14 07:30:26;;;;;;;;;;;19.90;53.00;;;;;;5123115;27;19923;-51
2022/07/14 07:32:52;;;;;;;;;;;20.80;56.20;;;;;;5147182;27;19934;-49
2022/07/14 07:35:18;;;;;;;;;;;21.60;55.70;;;;;;5140243;27;20361;-48
2022/07/14 07:37:44;;;;;;;;;;;21.40;54.30;;;;;;5140622;27;19933;-46
2022/07/14 07:40:10;;;;;;;;;;;20.70;53.80;;;;;;5146918;27;19971;-48
2022/07/14 07:42:35;;;;;;;;;;;20.60;52.70;;;;;;5141566;27;20343;-46
2022/07/14 07:45:03;;;;;;;;;;;20.30;52.30;;;;;;5141923;27;19927;-54
2022/07/14 07:47:28;;;;;;;;;;;20.20;52.00;;;;;;5146357;27;20010;-46
2022/07/14 07:49:54;;;;;;;;;;;20.10;51.20;;;;;;5140874;27;19929;-46
2022/07/14 07:52:20;;;;;;;;;;;20.00;52.50;;;;;;5146436;27;19923;-47
2022/07/14 07:54:46;;;;;;;;;;;20.70;56.80;;;;;;5121432;27;19937;-46
2022/07/14 07:57:12;;;;;;;;;;;21.60;56.20;;;;;;5140966;27;19958;-53
2022/07/14 07:59:38;;;;;;;;;;;21.50;54.50;;;;;;5146485;27;20396;-47
2022/07/14 08:02:04;;;;;;;;;;;20.80;54.00;;;;;;5141188;27;19933;-46
2022/07/14 08:04:29;;;;;;;;;;;20.60;52.90;;;;;;5140940;27;19926;-46
2022/07/14 08:06:55;;;;;;;;;;;20.30;52.30;;;;;;5146224;27;19945;-45
2022/07/14 08:09:21;;;;;;;;;;;20.30;51.80;;;;;;5141020;27;19926;-45
2022/07/14 08:11:47;;;;;;;;;;;20.20;51.70;;;;;;5145428;27;19970;-44
2022/07/14 08:16:57;;;;;;;;;;;20.00;51.20;;;;;;5141078;27;20312;-47
2022/07/14 08:19:23;;;;;;;;;;;20.20;55.30;;;;;;5146436;27;19927;-51
2022/07/14 08:21:49;;;;;;;;;;;21.00;57.20;;;;;;5140765;27;19983;-47
2022/07/14 08:24:15;;;;;;;;;;;21.80;56.10;;;;;;5140343;27;20366;-46
2022/07/14 08:26:41;;;;;;;;;;;21.10;54.50;;;;;;5146414;27;19923;-47
2022/07/14 08:29:07;;;;;;;;;;;20.70;53.60;;;;;;5140432;27;19926;-47
2022/07/14 08:31:33;;;;;;;;;;;20.50;52.20;;;;;;5139304;27;19923;-49
2022/07/14 08:33:58;;;;;;;;;;;20.30;51.90;;;;;;5145923;27;20396;-44
2022/07/14 08:36:24;;;;;;;;;;;20.30;51.40;;;;;;5140315;27;19927;-46
2022/07/14 08:38:50;;;;;;;;;;;20.20;51.10;;;;;;5127584;27;19931;-44
2022/07/14 08:41:16;;;;;;;;;;;20.10;51.10;;;;;;5120542;27;19931;-48
2022/07/14 08:43:41;;;;;;;;;;;20.20;52.50;;;;;;5140106;27;19923;-49
2022/07/14 08:46:07;;;;;;;;;;;20.80;56.30;;;;;;5127216;27;20419;-49
2022/07/14 08:48:33;;;;;;;;;;;21.60;55.90;;;;;;5139301;27;20269;-49
2022/07/14 08:50:59;;;;;;;;;;;21.50;54.20;;;;;;5139632;27;20251;-52
2022/07/14 08:53:25;;;;;;;;;;;20.90;53.50;;;;;;5145596;27;20271;-46
2022/07/14 08:55:51;;;;;;;;;;;20.70;52.60;;;;;;5140419;27;20386;-50
2022/07/14 08:58:17;;;;;;;;;;;20.60;51.70;;;;;;5145907;27;19934;-47
2022/07/14 09:00:43;;;;;;;;;;;20.40;51.40;;;;;;5139936;27;19931;-46
2022/07/14 09:03:09;;;;;;;;;;;20.30;50.70;;;;;;5140450;27;20439;-51
2022/07/14 09:05:41;;;;;;;;;;;20.10;50.80;;;;;;5145755;27;19979;-48
2022/07/14 09:08:06;;;;;;;;;;;20.00;50.70;;;;;;5138787;27;20390;-50
2022/07/14 09:10:32;;;;;;;;;;;19.90;50.90;;;;;;5140670;27;19979;-53
2022/07/14 09:13:14;;;;;;;;;;;20.20;53.50;;;;;;5149029;27;19923;-48
2022/07/14 09:15:45;;;;;;;;;;;21.00;55.70;;;;;;5143770;27;19935;-48
2022/07/14 09:18:22;;;;;;;;;;;21.80;54.70;;;;;;5143586;27;20378;-46
2022/07/14 09:20:47;;;;;;;;;;;21.30;53.60;;;;;;5149071;27;19931;-46
2022/07/14 09:23:13;;;;;;;;;;;20.90;52.20;;;;;;5125064;27;20354;-49
2022/07/14 09:25:39;;;;;;;;;;;20.60;51.80;;;;;;5142775;27;19945;-57
2022/07/14 09:28:06;;;;;;;;;;;20.50;51.00;;;;;;5128007;27;19923;-47
2022/07/14 09:30:32;;;;;;;;;;;20.40;50.60;;;;;;5143413;27;19930;-48
2022/07/14 09:32:59;;;;;;;;;;;20.30;50.20;;;;;;5148779;27;19923;-51
2022/07/14 09:35:26;;;;;;;;;;;20.40;49.60;;;;;;5143602;27;20370;-50
2022/07/14 09:37:52;;;;;;;;;;;20.10;50.10;;;;;;5143041;27;20422;-50
2022/07/14 09:40:25;;;;;;;;;;;20.00;49.80;;;;;;5148654;27;19923;-48
2022/07/14 09:42:52;;;;;;;;;;;20.20;52.90;;;;;;5142909;27;19930;-52
2022/07/14 09:45:22;;;;;;;;;;;21.20;54.00;;;;;;5142044;27;20021;-53
2022/07/14 09:47:51;;;;;;;;;;;22.00;52.40;;;;;;5148531;27;19970;-47
2022/07/14 09:50:36;;;;;;;;;;;21.30;51.80;;;;;;5143147;27;19927;-46
2022/07/14 09:53:21;;;;;;;;;;;20.80;51.60;;;;;;5143222;27;20073;-45
2022/07/14 09:55:56;;;;;;;;;;;20.80;50.30;;;;;;5148097;27;20018;-48
2022/07/14 09:58:23;;;;;;;;;;;20.50;50.10;;;;;;5143377;27;19933;-46
2022/07/14 10:00:55;;;;;;;;;;;20.40;49.80;;;;;;5139021;27;20433;-47
2022/07/14 10:03:21;;;;;;;;;;;20.40;49.70;;;;;;5146832;27;19978;-50
2022/07/14 10:05:46;;;;;;;;;;;20.00;50.00;;;;;;5124071;27;19927;-47
2022/07/14 10:08:12;;;;;;;;;;;20.20;49.70;;;;;;5125540;27;19927;-55
2022/07/14 10:10:38;;;;;;;;;;;20.20;49.40;;;;;;5147431;27;19927;-46
2022/07/14 10:13:04;;;;;;;;;;;20.30;52.10;;;;;;5142658;27;19934;-46
2022/07/14 10:15:30;;;;;;;;;;;21.40;52.40;;;;;;5147982;27;20335;-46
2022/07/14 10:17:56;;;;;;;;;;;21.90;51.20;;;;;;5142603;27;19929;-52
2022/07/14 10:20:22;;;;;;;;;;;21.30;51.30;;;;;;5141526;27;19931;-49
2022/07/14 10:22:48;;;;;;;;;;;20.80;50.90;;;;;;5145934;27;20011;-51
2022/07/14 10:25:14;;;;;;;;;;;20.50;50.80;;;;;;5142341;27;19923;-50
2022/07/14 10:27:40;;;;;;;;;;;20.40;50.20;;;;;;5142443;27;19929;-51
2022/07/14 10:30:06;;;;;;;;;;;20.30;49.90;;;;;;5143887;27;19930;-47
2022/07/14 10:32:58;;;;;;;;;;;20.50;49.20;;;;;;5141628;27;20034;-50
2022/07/14 10:35:42;;;;;;;;;;;20.30;49.50;;;;;;5137398;27;19923;-46
2022/07/14 10:38:08;;;;;;;;;;;20.20;49.40;;;;;;5147215;27;19923;-49
2022/07/14 10:40:33;;;;;;;;;;;20.10;49.60;;;;;;5141119;27;19952;-48
2022/07/14 10:42:59;;;;;;;;;;;20.30;51.20;;;;;;5145030;27;19945;-54
2022/07/14 10:45:26;;;;;;;;;;;21.20;52.30;;;;;;5145363;27;19923;-46
2022/07/14 10:47:52;;;;;;;;;;;22.00;50.80;;;;;;5142308;27;19923;-46
2022/07/14 10:50:22;;;;;;;;;;;21.30;50.80;;;;;;5147368;27;20045;-45
2022/07/14 10:52:50;;;;;;;;;;;20.90;50.20;;;;;;5141291;27;22427;-46
2022/07/14 10:55:16;;;;;;;;;;;20.60;50.10;;;;;;5142162;27;19930;-50
2022/07/14 10:58:04;;;;;;;;;;;20.50;49.70;;;;;;5145961;27;19923;-47
2022/07/14 11:00:43;;;;;;;;;;;20.50;49.40;;;;;;5141488;27;20325;-50
2022/07/14 11:03:28;;;;;;;;;;;20.60;48.70;;;;;;5141852;27;19929;-47
2022/07/14 11:06:00;;;;;;;;;;;20.40;49.00;;;;;;5147273;27;19931;-47
2022/07/14 11:08:26;;;;;;;;;;;20.30;48.80;;;;;;5141777;27;20009;-46
2022/07/14 11:10:53;;;;;;;;;;;20.30;48.70;;;;;;5141798;27;19970;-46
2022/07/14 11:13:18;;;;;;;;;;;20.50;51.00;;;;;;5147495;27;19967;-45
2022/07/14 11:15:44;;;;;;;;;;;21.30;51.30;;;;;;5120741;27;19927;-46
2022/07/14 11:18:21;;;;;;;;;;;21.70;50.40;;;;;;5140784;27;20143;-45
2022/07/14 11:20:46;;;;;;;;;;;21.10;50.30;;;;;;5147208;27;20014;-47
2022/07/14 11:23:22;;;;;;;;;;;20.90;49.70;;;;;;5141777;27;19923;-47
2022/07/14 11:25:51;;;;;;;;;;;20.60;49.70;;;;;;5142018;27;20252;-50
2022/07/14 11:28:29;;;;;;;;;;;20.50;49.20;;;;;;5146654;27;19923;-46
2022/07/14 11:31:08;;;;;;;;;;;20.50;48.80;;;;;;5141465;27;20293;-45
2022/07/14 11:33:33;;;;;;;;;;;20.50;48.70;;;;;;5140360;27;20698;-45
2022/07/14 11:36:18;;;;;;;;;;;20.40;48.60;;;;;;5127604;27;19930;-48
2022/07/14 11:38:44;;;;;;;;;;;20.30;48.70;;;;;;5125772;27;19979;-46
2022/07/14 11:41:10;;;;;;;;;;;20.30;48.70;;;;;;5141625;27;20010;-51
2022/07/14 11:43:36;;;;;;;;;;;20.20;48.70;;;;;;5127572;27;19927;-49
2022/07/14 11:46:03;;;;;;;;;;;20.20;48.50;;;;;;5140885;27;20283;-47
2022/07/14 11:48:29;;;;;;;;;;;20.20;48.60;;;;;;5146780;27;20358;-45
2022/07/14 11:51:06;;;;;;;;;;;20.20;48.50;;;;;;5141024;27;19923;-46
2022/07/14 11:53:32;;;;;;;;;;;20.20;50.30;;;;;;5139517;27;19951;-49
2022/07/14 11:55:58;;;;;;;;;;;21.30;50.50;;;;;;5146125;27;20067;-48
2022/07/14 11:58:24;;;;;;;;;;;22.10;49.30;;;;;;5140976;27;19938;-49
2022/07/14 12:00:54;;;;;;;;;;;21.30;49.60;;;;;;5121349;27;20311;-46
2022/07/14 12:03:20;;;;;;;;;;;21.00;49.60;;;;;;5145603;27;19923;-46
2022/07/14 12:05:49;;;;;;;;;;;20.60;49.70;;;;;;5140984;27;20393;-45
2022/07/14 12:08:15;;;;;;;;;;;20.30;49.70;;;;;;5123093;27;20010;-50
2022/07/14 12:10:41;;;;;;;;;;;20.60;48.80;;;;;;5126611;27;20058;-51
2022/07/14 12:13:07;;;;;;;;;;;20.40;48.90;;;;;;5139832;27;19970;-49
2022/07/14 12:15:33;;;;;;;;;;;20.30;49.00;;;;;;5146253;27;19923;-49
2022/07/14 12:18:04;;;;;;;;;;;20.40;48.50;;;;;;5140749;27;19980;-47
2022/07/14 12:20:37;;;;;;;;;;;20.10;48.80;;;;;;5140720;27;20014;-49
2022/07/14 12:23:03;;;;;;;;;;;20.30;48.10;;;;;;5145271;27;19970;-48
2022/07/14 12:25:31;;;;;;;;;;;20.30;48.20;;;;;;5140604;27;20668;-51
2022/07/14 12:27:58;;;;;;;;;;;20.10;48.80;;;;;;5121951;27;20374;-46
2022/07/14 12:30:23;;;;;;;;;;;20.30;48.20;;;;;;5144173;27;19947;-51
2022/07/14 12:32:55;;;;;;;;;;;20.60;50.00;;;;;;5140352;27;20011;-53
2022/07/14 12:35:21;;;;;;;;;;;21.50;50.00;;;;;;5120741;27;20383;-54
2022/07/14 12:37:48;;;;;;;;;;;22.00;49.00;;;;;;5127421;27;20297;-47
2022/07/14 12:40:14;;;;;;;;;;;21.20;49.50;;;;;;5140187;27;20267;-49
2022/07/14 12:42:41;;;;;;;;;;;20.90;49.50;;;;;;5127560;27;19923;-53
2022/07/14 12:45:07;;;;;;;;;;;20.70;49.30;;;;;;5141025;27;19950;-47
2022/07/14 12:47:48;;;;;;;;;;;20.60;49.00;;;;;;5143009;27;19927;-50
2022/07/14 12:50:18;;;;;;;;;;;20.60;48.60;;;;;;5148746;27;19931;-45
2022/07/14 12:52:50;;;;;;;;;;;20.50;48.50;;;;;;5144061;27;19927;-48
2022/07/14 12:55:32;;;;;;;;;;;20.50;48.30;;;;;;5144177;27;19924;-47
2022/07/14 12:58:02;;;;;;;;;;;20.40;48.40;;;;;;5158676;27;19922;-51
2022/07/14 13:00:29;;;;;;;;;;;20.40;48.30;;;;;;5164269;27;19929;-49
2022/07/14 13:03:07;;;;;;;;;;;20.30;48.30;;;;;;5145992;27;19929;-47
2022/07/14 13:05:32;;;;;;;;;;;20.40;48.00;;;;;;5169028;27;20017;-49
2022/07/14 13:07:58;;;;;;;;;;;20.30;48.20;;;;;;5163328;27;20430;-50
2022/07/14 13:10:26;;;;;;;;;;;20.20;48.40;;;;;;5145166;27;19934;-45
2022/07/14 13:12:53;;;;;;;;;;;20.20;48.40;;;;;;5170178;27;19930;-46
2022/07/14 13:15:19;;;;;;;;;;;20.10;49.50;;;;;;5145639;27;20010;-47
2022/07/14 13:17:57;;;;;;;;;;;21.20;49.90;;;;;;5168922;27;19937;-53
2022/07/14 13:20:42;;;;;;;;;;;22.00;48.60;;;;;;5160680;27;20294;-47
2022/07/14 13:23:07;;;;;;;;;;;21.30;49.20;;;;;;5143429;27;19970;-50
2022/07/14 13:25:42;;;;;;;;;;;20.90;49.30;;;;;;5145407;27;20320;-55
2022/07/14 13:28:08;;;;;;;;;;;20.70;49.30;;;;;;5148873;27;19980;-46
2022/07/14 13:30:34;;;;;;;;;;;20.70;48.90;;;;;;5143229;27;19927;-54
2022/07/14 13:33:00;;;;;;;;;;;20.60;48.60;;;;;;5148916;27;19946;-45
2022/07/14 13:35:26;;;;;;;;;;;20.60;48.60;;;;;;5143183;27;19931;-48
2022/07/14 13:37:51;;;;;;;;;;;20.50;48.50;;;;;;5143108;27;20496;-47
2022/07/14 13:40:17;;;;;;;;;;;20.60;48.20;;;;;;5148812;27;19923;-48
2022/07/14 13:42:43;;;;;;;;;;;20.40;48.50;;;;;;5131298;27;20303;-48
2022/07/14 13:45:09;;;;;;;;;;;20.30;48.60;;;;;;5162936;27;20119;-45
2022/07/14 13:47:34;;;;;;;;;;;20.20;49.10;;;;;;5169307;27;19930;-50
2022/07/14 13:52:44;;;;;;;;;;;20.30;48.20;;;;;;5165289;27;19929;-52
2022/07/14 13:55:10;;;;;;;;;;;20.20;48.50;;;;;;5111282;27;20374;-49
2022/07/14 13:57:36;;;;;;;;;;;20.20;48.40;;;;;;5142798;27;20333;-52
2022/07/14 14:00:02;;;;;;;;;;;20.40;50.10;;;;;;5147659;27;19926;-51
2022/07/14 14:03:22;;;;;;;;;;;21.40;50.00;;;;;;5123054;27;19923;-50
2022/07/14 14:05:14;;;;;;;;;;;22.00;48.60;;;;;;5142647;27;20525;-46
2022/07/14 14:07:40;;;;;;;;;;;21.10;49.70;;;;;;5148503;27;19923;-48
2022/07/14 14:10:06;;;;;;;;;;;20.90;49.50;;;;;;5123615;27;20406;-49
2022/07/14 14:12:31;;;;;;;;;;;20.80;49.30;;;;;;5142546;27;19972;-47
2022/07/14 14:14:57;;;;;;;;;;;20.60;49.20;;;;;;5148258;27;19973;-48
2022/07/14 14:17:23;;;;;;;;;;;20.70;48.70;;;;;;5142599;27;19930;-45
2022/07/14 14:19:49;;;;;;;;;;;20.50;48.90;;;;;;5142459;27;19923;-55
2022/07/14 14:22:19;;;;;;;;;;;20.50;48.90;;;;;;5145725;27;19930;-46
2022/07/14 14:24:45;;;;;;;;;;;20.30;48.80;;;;;;5142815;27;20022;-50
2022/07/14 14:27:11;;;;;;;;;;;20.20;49.00;;;;;;5148048;27;20302;-47
2022/07/14 14:29:39;;;;;;;;;;;20.30;48.80;;;;;;5142486;27;19929;-45
2022/07/14 14:32:05;;;;;;;;;;;20.30;48.80;;;;;;5141955;27;19975;-47